createdAt,value
2019-04-14T00:00:29.353Z,2.93
2019-04-14T00:10:31.196Z,2.69
2019-04-14T00:20:32.081Z,2.19
2019-04-14T00:30:35.825Z,2.84
2019-04-14T00:40:38.992Z,2.84
2019-04-14T00:50:40.879Z,2.01
2019-04-14T01:00:43.026Z,1.78
2019-04-14T01:10:43.838Z,2.35
2019-04-14T01:20:44.963Z,3.06
2019-04-14T01:30:45.932Z,3.32
2019-04-14T01:40:46.795Z,3.00
2019-04-14T01:50:47.486Z,2.47
2019-04-14T02:00:49.284Z,1.97
2019-04-14T02:10:50.162Z,2.50
2019-04-14T02:21:19.459Z,2.20
2019-04-14T02:31:56.985Z,2.69
2019-04-14T02:42:12.372Z,2.67
2019-04-14T02:51:58.299Z,3.20
2019-04-14T03:02:20.870Z,2.54
2019-04-14T03:22:25.886Z,2.81
2019-04-14T03:32:23.090Z,2.63
2019-04-14T03:42:21.491Z,2.38
2019-04-14T03:52:26.951Z,2.16
2019-04-14T04:01:54.467Z,2.17
2019-04-14T04:11:56.325Z,2.03
2019-04-14T04:21:58.203Z,2.31
2019-04-14T04:31:59.032Z,2.33
2019-04-14T04:42:00.566Z,2.74
2019-04-14T04:52:04.100Z,2.17
2019-04-14T05:02:06.997Z,2.72
2019-04-14T05:12:09.037Z,2.58
2019-04-14T05:22:11.311Z,2.37
2019-04-14T05:32:15.205Z,2.85
2019-04-14T05:42:20.988Z,2.45
2019-04-14T05:52:20.573Z,2.91
2019-04-14T06:02:22.287Z,3.13
2019-04-14T06:12:25.028Z,3.31
2019-04-14T06:22:26.773Z,3.01
2019-04-14T06:32:27.576Z,3.16
2019-04-14T06:42:29.637Z,3.57
2019-04-14T06:52:30.563Z,4.68
2019-04-14T07:02:33.288Z,5.30
2019-04-14T07:12:34.070Z,4.61
2019-04-14T07:22:35.900Z,5.04
2019-04-14T07:32:37.876Z,4.98
2019-04-14T07:42:48.848Z,5.53
2019-04-14T07:52:49.651Z,5.48
2019-04-14T08:02:52.459Z,5.90
2019-04-14T08:12:53.185Z,5.53
2019-04-14T08:22:57.638Z,5.44
2019-04-14T08:32:57.905Z,6.30
2019-04-14T08:42:59.668Z,6.05
2019-04-14T08:53:00.349Z,6.84
2019-04-14T09:03:02.240Z,6.42
2019-04-14T09:13:03.050Z,6.41
2019-04-14T09:23:04.010Z,7.73
2019-04-14T09:33:04.774Z,7.99
2019-04-14T09:43:05.702Z,8.37
2019-04-14T09:53:06.442Z,8.96
2019-04-14T10:03:07.822Z,8.21
2019-04-14T10:13:09.800Z,9.13
2019-04-14T10:23:10.661Z,9.15
2019-04-14T10:33:11.386Z,9.52
2019-04-14T10:43:12.131Z,9.90
2019-04-14T10:53:12.961Z,7.72
2019-04-14T11:03:13.995Z,10.79
2019-04-14T11:13:21.189Z,9.87
2019-04-14T11:23:22.125Z,8.29
2019-04-14T11:33:23.032Z,9.63
2019-04-14T11:43:23.934Z,10.53
2019-04-14T11:53:24.706Z,12.59
2019-04-14T12:03:25.603Z,11.68
2019-04-14T12:13:26.298Z,10.15
2019-04-14T12:23:27.230Z,10.95
2019-04-14T12:33:34.718Z,9.76
2019-04-14T12:43:42.345Z,10.89
2019-04-14T12:53:44.009Z,10.51
2019-04-14T13:03:45.816Z,11.14
2019-04-14T13:13:46.500Z,10.84
2019-04-14T13:23:47.314Z,11.72
2019-04-14T13:33:48.152Z,11.18
2019-04-14T13:43:48.906Z,11.53
2019-04-14T13:53:50.779Z,10.73
2019-04-14T14:03:54.613Z,11.87
2019-04-14T14:13:57.390Z,11.84
2019-04-14T14:23:58.054Z,12.18
2019-04-14T14:33:58.923Z,10.64
2019-04-14T14:44:01.745Z,11.22
2019-04-14T14:54:03.559Z,10.41
2019-04-14T15:04:05.233Z,10.32
2019-04-14T15:14:05.940Z,11.09
2019-04-14T15:24:06.727Z,9.90
2019-04-14T15:34:10.647Z,9.91
2019-04-14T15:44:11.116Z,10.89
2019-04-14T15:54:12.970Z,9.54
2019-04-14T16:04:15.823Z,10.36
2019-04-14T16:14:16.665Z,9.44
2019-04-14T16:24:17.468Z,9.17
2019-04-14T16:34:18.163Z,9.07
2019-04-14T16:44:20.067Z,8.87
2019-04-14T16:54:20.967Z,8.87
2019-04-14T17:04:21.846Z,8.65
2019-04-14T17:14:22.503Z,8.36
2019-04-14T17:24:24.351Z,8.11
2019-04-14T17:34:25.268Z,8.23
2019-04-14T17:44:26.156Z,8.26
2019-04-14T17:54:29.701Z,7.83
2019-04-14T18:04:29.853Z,7.89
2019-04-14T18:14:31.679Z,7.57
2019-04-14T18:24:42.133Z,7.27
2019-04-14T18:34:36.113Z,7.20
2019-04-14T18:44:46.168Z,7.18
2019-04-14T18:54:54.421Z,7.25
2019-04-14T19:04:49.921Z,7.21
2019-04-14T19:14:51.780Z,7.15
2019-04-14T19:24:52.665Z,7.67
2019-04-14T19:34:53.582Z,7.55
2019-04-14T19:44:55.353Z,7.28
2019-04-14T19:55:03.343Z,6.86
2019-04-14T20:05:05.477Z,6.78
2019-04-14T20:15:12.369Z,6.53
2019-04-14T20:25:15.377Z,6.67
2019-04-14T20:35:16.274Z,6.26
2019-04-14T20:45:18.087Z,6.32
2019-04-14T20:55:18.867Z,6.50
2019-04-14T21:05:21.693Z,6.29
2019-04-14T21:15:22.442Z,6.46
2019-04-14T21:25:23.195Z,6.60
2019-04-14T21:35:24.001Z,6.55
2019-04-14T21:45:26.241Z,7.15
2019-04-14T21:55:28.551Z,6.54
2019-04-14T22:15:35.101Z,6.18
2019-04-14T22:25:40.880Z,6.54
2019-04-14T22:35:48.332Z,6.24
2019-04-14T22:45:49.140Z,6.63
2019-04-14T22:55:49.860Z,6.23
2019-04-14T23:05:51.792Z,6.36
2019-04-14T23:15:53.650Z,6.13
2019-04-14T23:25:54.841Z,6.80
2019-04-14T23:35:55.600Z,6.05
2019-04-14T23:45:56.264Z,6.59
2019-04-14T23:55:57.003Z,6.73
